Accueil
METAR-TAF:

METAR-TAF

Aéroports :

Tanabe, Japon

latitude: 33-44N, longitude: 135-23E, altitude: 105 m

Observation

Le bulletin a été fait il y a 49 minutes, à 00:00 UTC
Vent 5 kt de direction variable
Température 9°C
Humidité 87%
Pression 1017 hPa
Visibilité 10 km ou plus
Quelques nuages à une hauteur de 800 ft
Nuages épars à une hauteur de 5000 ft
Nuages fragmentés à une hauteur de 6000 ft
pluie faible

METAR: RJBD 270000Z VRB05KT 9999 -RA FEW008 SCT050 BKN060 09/07 Q1017

Heure: 09:49 (00:49 UTC)


TAF: absent

Observations et prévisions météorologiques de plus de 4000 aéroports (messages METAR et TAF).

Les stations disponibles sont représentées par des disques jaunes et rouges sur la carte.

Passer la souris dessus pour voir le nom de la station.

Cliquer dessus pour voir les observations et prévisions météorologiques.

Pour changer de carte: cliquez sur les boutons verts avec une croix noire pour zoomer, sur le bouton vert avec un tiret pour effectuer un zoom arrière, ou sur les flèches vertes pour les cartes adjacentes.


METAR-TAF: